sensor_id;sensor_type;location;lat;lon;timestamp;P1;durP1;ratioP1;P2;durP2;ratioP2
7450;SDS011;3767;42.688;23.360;2022-09-09T00:01:47;9.38;;;8.48;;
7450;SDS011;3767;42.688;23.360;2022-09-09T00:04:18;11.00;;;8.77;;
7450;SDS011;3767;42.688;23.360;2022-09-09T00:06:50;10.65;;;9.55;;
7450;SDS011;3767;42.688;23.360;2022-09-09T00:09:21;10.48;;;8.90;;
7450;SDS011;3767;42.688;23.360;2022-09-09T00:11:48;12.55;;;9.70;;
7450;SDS011;3767;42.688;23.360;2022-09-09T00:14:19;11.55;;;9.45;;
7450;SDS011;3767;42.688;23.360;2022-09-09T00:16:49;12.07;;;9.40;;
7450;SDS011;3767;42.688;23.360;2022-09-09T00:19:19;11.02;;;9.43;;
7450;SDS011;3767;42.688;23.360;2022-09-09T00:21:47;12.55;;;10.05;;
7450;SDS011;3767;42.688;23.360;2022-09-09T00:24:22;12.60;;;10.20;;
7450;SDS011;3767;42.688;23.360;2022-09-09T00:26:52;10.37;;;9.30;;
7450;SDS011;3767;42.688;23.360;2022-09-09T00:29:23;10.73;;;9.30;;
7450;SDS011;3767;42.688;23.360;2022-09-09T00:31:53;11.33;;;9.60;;
7450;SDS011;3767;42.688;23.360;2022-09-09T00:34:21;22.80;;;14.67;;
7450;SDS011;3767;42.688;23.360;2022-09-09T00:36:49;13.00;;;11.17;;
7450;SDS011;3767;42.688;23.360;2022-09-09T00:39:19;11.63;;;10.00;;
7450;SDS011;3767;42.688;23.360;2022-09-09T00:41:49;11.13;;;9.50;;
7450;SDS011;3767;42.688;23.360;2022-09-09T00:44:24;11.77;;;10.23;;
7450;SDS011;3767;42.688;23.360;2022-09-09T00:46:56;16.37;;;10.43;;
7450;SDS011;3767;42.688;23.360;2022-09-09T00:49:29;12.57;;;10.37;;
7450;SDS011;3767;42.688;23.360;2022-09-09T00:51:59;13.57;;;10.47;;
7450;SDS011;3767;42.688;23.360;2022-09-09T00:54:35;11.30;;;9.83;;
7450;SDS011;3767;42.688;23.360;2022-09-09T00:57:07;10.73;;;9.63;;
7450;SDS011;3767;42.688;23.360;2022-09-09T00:59:41;14.33;;;9.67;;
7450;SDS011;3767;42.688;23.360;2022-09-09T01:02:13;9.77;;;8.50;;
7450;SDS011;3767;42.688;23.360;2022-09-09T01:04:42;13.03;;;8.70;;
7450;SDS011;3767;42.688;23.360;2022-09-09T01:07:13;9.50;;;8.23;;
7450;SDS011;3767;42.688;23.360;2022-09-09T01:09:44;8.70;;;7.80;;
7450;SDS011;3767;42.688;23.360;2022-09-09T01:12:12;11.02;;;8.40;;
7450;SDS011;3767;42.688;23.360;2022-09-09T01:14:43;8.60;;;7.80;;
7450;SDS011;3767;42.688;23.360;2022-09-09T01:17:13;9.03;;;8.07;;
7450;SDS011;3767;42.688;23.360;2022-09-09T01:19:45;8.77;;;8.00;;
7450;SDS011;3767;42.688;23.360;2022-09-09T01:22:15;8.80;;;8.00;;
7450;SDS011;3767;42.688;23.360;2022-09-09T01:24:50;9.30;;;8.40;;
7450;SDS011;3767;42.688;23.360;2022-09-09T01:27:22;8.73;;;7.70;;
7450;SDS011;3767;42.688;23.360;2022-09-09T01:29:50;8.97;;;8.10;;
7450;SDS011;3767;42.688;23.360;2022-09-09T01:35:02;9.57;;;8.57;;
7450;SDS011;3767;42.688;23.360;2022-09-09T01:37:29;8.90;;;8.00;;
7450;SDS011;3767;42.688;23.360;2022-09-09T01:39:56;10.03;;;8.27;;
7450;SDS011;3767;42.688;23.360;2022-09-09T01:42:24;11.10;;;8.10;;
7450;SDS011;3767;42.688;23.360;2022-09-09T01:44:50;8.90;;;7.57;;
7450;SDS011;3767;42.688;23.360;2022-09-09T01:47:17;9.60;;;8.05;;
7450;SDS011;3767;42.688;23.360;2022-09-09T01:49:43;9.38;;;7.97;;
7450;SDS011;3767;42.688;23.360;2022-09-09T01:52:09;9.55;;;8.15;;
7450;SDS011;3767;42.688;23.360;2022-09-09T01:54:36;9.02;;;8.18;;
7450;SDS011;3767;42.688;23.360;2022-09-09T01:57:05;8.75;;;7.90;;
7450;SDS011;3767;42.688;23.360;2022-09-09T01:59:39;8.80;;;7.95;;
7450;SDS011;3767;42.688;23.360;2022-09-09T02:02:10;9.27;;;8.25;;
7450;SDS011;3767;42.688;23.360;2022-09-09T02:04:38;8.40;;;7.60;;
7450;SDS011;3767;42.688;23.360;2022-09-09T02:07:06;8.90;;;8.00;;
7450;SDS011;3767;42.688;23.360;2022-09-09T02:09:37;10.13;;;8.45;;
7450;SDS011;3767;42.688;23.360;2022-09-09T02:12:06;9.00;;;8.15;;
7450;SDS011;3767;42.688;23.360;2022-09-09T02:14:35;9.73;;;8.73;;
7450;SDS011;3767;42.688;23.360;2022-09-09T02:17:06;9.43;;;8.45;;
7450;SDS011;3767;42.688;23.360;2022-09-09T02:19:35;11.83;;;9.17;;
7450;SDS011;3767;42.688;23.360;2022-09-09T02:22:03;11.20;;;9.07;;
7450;SDS011;3767;42.688;23.360;2022-09-09T02:24:30;10.88;;;8.98;;
7450;SDS011;3767;42.688;23.360;2022-09-09T02:26:58;9.20;;;8.45;;
7450;SDS011;3767;42.688;23.360;2022-09-09T02:29:27;10.15;;;8.88;;
7450;SDS011;3767;42.688;23.360;2022-09-09T02:31:54;8.55;;;7.75;;
7450;SDS011;3767;42.688;23.360;2022-09-09T02:34:24;9.43;;;8.45;;
7450;SDS011;3767;42.688;23.360;2022-09-09T02:36:52;10.37;;;8.47;;
7450;SDS011;3767;42.688;23.360;2022-09-09T02:39:20;10.30;;;8.17;;
7450;SDS011;3767;42.688;23.360;2022-09-09T02:41:46;9.40;;;8.50;;
7450;SDS011;3767;42.688;23.360;2022-09-09T02:44:14;9.03;;;8.23;;
7450;SDS011;3767;42.688;23.360;2022-09-09T02:46:55;10.27;;;9.13;;
7450;SDS011;3767;42.688;23.360;2022-09-09T02:49:27;9.30;;;8.50;;
7450;SDS011;3767;42.688;23.360;2022-09-09T02:51:57;9.48;;;8.52;;
7450;SDS011;3767;42.688;23.360;2022-09-09T02:54:27;9.25;;;8.38;;
7450;SDS011;3767;42.688;23.360;2022-09-09T02:56:56;9.10;;;8.40;;
7450;SDS011;3767;42.688;23.360;2022-09-09T02:59:26;9.20;;;8.43;;
7450;SDS011;3767;42.688;23.360;2022-09-09T03:01:52;9.27;;;8.47;;
7450;SDS011;3767;42.688;23.360;2022-09-09T03:04:19;9.30;;;8.43;;
7450;SDS011;3767;42.688;23.360;2022-09-09T03:06:47;10.13;;;9.03;;
7450;SDS011;3767;42.688;23.360;2022-09-09T03:09:14;11.77;;;9.60;;
7450;SDS011;3767;42.688;23.360;2022-09-09T03:11:40;9.43;;;8.63;;
7450;SDS011;3767;42.688;23.360;2022-09-09T03:14:07;10.17;;;9.17;;
7450;SDS011;3767;42.688;23.360;2022-09-09T03:16:35;11.30;;;9.40;;
7450;SDS011;3767;42.688;23.360;2022-09-09T03:19:01;10.43;;;9.33;;
7450;SDS011;3767;42.688;23.360;2022-09-09T03:21:28;10.53;;;9.57;;
7450;SDS011;3767;42.688;23.360;2022-09-09T03:23:56;10.40;;;9.27;;
7450;SDS011;3767;42.688;23.360;2022-09-09T03:26:22;17.67;;;10.77;;
7450;SDS011;3767;42.688;23.360;2022-09-09T03:28:49;11.50;;;10.43;;
7450;SDS011;3767;42.688;23.360;2022-09-09T03:31:16;12.43;;;11.13;;
7450;SDS011;3767;42.688;23.360;2022-09-09T03:33:44;11.30;;;9.73;;
7450;SDS011;3767;42.688;23.360;2022-09-09T03:36:10;11.20;;;10.20;;
7450;SDS011;3767;42.688;23.360;2022-09-09T03:38:37;11.70;;;10.57;;
7450;SDS011;3767;42.688;23.360;2022-09-09T03:41:05;11.40;;;10.30;;
7450;SDS011;3767;42.688;23.360;2022-09-09T03:43:33;13.00;;;10.53;;
7450;SDS011;3767;42.688;23.360;2022-09-09T03:45:59;14.53;;;11.70;;
7450;SDS011;3767;42.688;23.360;2022-09-09T03:48:26;11.10;;;10.00;;
7450;SDS011;3767;42.688;23.360;2022-09-09T03:50:53;13.47;;;9.80;;
7450;SDS011;3767;42.688;23.360;2022-09-09T03:53:21;14.97;;;11.83;;
7450;SDS011;3767;42.688;23.360;2022-09-09T03:55:49;13.30;;;10.87;;
7450;SDS011;3767;42.688;23.360;2022-09-09T03:58:19;11.93;;;10.60;;
7450;SDS011;3767;42.688;23.360;2022-09-09T04:00:52;13.10;;;11.07;;
7450;SDS011;3767;42.688;23.360;2022-09-09T04:03:19;14.07;;;11.23;;
7450;SDS011;3767;42.688;23.360;2022-09-09T04:05:48;12.40;;;11.03;;
7450;SDS011;3767;42.688;23.360;2022-09-09T04:08:14;11.10;;;10.00;;
7450;SDS011;3767;42.688;23.360;2022-09-09T04:10:41;11.30;;;10.13;;
7450;SDS011;3767;42.688;23.360;2022-09-09T04:13:07;12.27;;;10.97;;
7450;SDS011;3767;42.688;23.360;2022-09-09T04:15:35;13.20;;;11.07;;
7450;SDS011;3767;42.688;23.360;2022-09-09T04:18:01;11.63;;;10.47;;
7450;SDS011;3767;42.688;23.360;2022-09-09T04:20:28;13.97;;;11.17;;
7450;SDS011;3767;42.688;23.360;2022-09-09T04:22:55;16.23;;;11.37;;
7450;SDS011;3767;42.688;23.360;2022-09-09T04:25:21;12.50;;;10.60;;
7450;SDS011;3767;42.688;23.360;2022-09-09T04:27:52;13.90;;;11.50;;
7450;SDS011;3767;42.688;23.360;2022-09-09T04:30:19;11.13;;;9.90;;
7450;SDS011;3767;42.688;23.360;2022-09-09T04:32:47;12.00;;;10.70;;
7450;SDS011;3767;42.688;23.360;2022-09-09T04:35:13;17.23;;;11.03;;
7450;SDS011;3767;42.688;23.360;2022-09-09T04:37:40;12.53;;;10.20;;
7450;SDS011;3767;42.688;23.360;2022-09-09T04:40:07;10.60;;;9.60;;
7450;SDS011;3767;42.688;23.360;2022-09-09T04:42:35;11.03;;;9.93;;
7450;SDS011;3767;42.688;23.360;2022-09-09T04:45:02;11.37;;;10.10;;
7450;SDS011;3767;42.688;23.360;2022-09-09T04:47:28;12.53;;;11.07;;
7450;SDS011;3767;42.688;23.360;2022-09-09T04:49:56;13.23;;;10.07;;
7450;SDS011;3767;42.688;23.360;2022-09-09T04:52:23;15.97;;;11.60;;
7450;SDS011;3767;42.688;23.360;2022-09-09T04:54:49;10.83;;;9.83;;
7450;SDS011;3767;42.688;23.360;2022-09-09T04:57:16;18.47;;;11.53;;
7450;SDS011;3767;42.688;23.360;2022-09-09T04:59:42;12.40;;;10.47;;
7450;SDS011;3767;42.688;23.360;2022-09-09T05:02:09;18.90;;;12.37;;
7450;SDS011;3767;42.688;23.360;2022-09-09T05:04:36;15.93;;;12.17;;
7450;SDS011;3767;42.688;23.360;2022-09-09T05:07:04;11.13;;;9.93;;
7450;SDS011;3767;42.688;23.360;2022-09-09T05:09:30;17.07;;;11.97;;
7450;SDS011;3767;42.688;23.360;2022-09-09T05:11:56;13.37;;;9.87;;
7450;SDS011;3767;42.688;23.360;2022-09-09T05:14:23;11.90;;;10.00;;
7450;SDS011;3767;42.688;23.360;2022-09-09T05:16:50;13.27;;;10.13;;
7450;SDS011;3767;42.688;23.360;2022-09-09T05:19:16;10.70;;;9.63;;
7450;SDS011;3767;42.688;23.360;2022-09-09T05:21:44;13.23;;;10.77;;
7450;SDS011;3767;42.688;23.360;2022-09-09T05:24:12;12.63;;;10.93;;
7450;SDS011;3767;42.688;23.360;2022-09-09T05:26:39;11.77;;;9.50;;
7450;SDS011;3767;42.688;23.360;2022-09-09T05:29:05;13.30;;;10.55;;
7450;SDS011;3767;42.688;23.360;2022-09-09T05:31:33;11.05;;;9.70;;
7450;SDS011;3767;42.688;23.360;2022-09-09T05:33:59;15.00;;;11.47;;
7450;SDS011;3767;42.688;23.360;2022-09-09T05:36:26;11.80;;;10.30;;
7450;SDS011;3767;42.688;23.360;2022-09-09T05:38:52;13.45;;;10.05;;
7450;SDS011;3767;42.688;23.360;2022-09-09T05:41:21;64.55;;;42.30;;
7450;SDS011;3767;42.688;23.360;2022-09-09T05:43:48;154.82;;;87.90;;
7450;SDS011;3767;42.688;23.360;2022-09-09T05:46:15;61.80;;;34.73;;
7450;SDS011;3767;42.688;23.360;2022-09-09T05:48:42;24.45;;;16.80;;
7450;SDS011;3767;42.688;23.360;2022-09-09T05:51:11;15.50;;;10.82;;
7450;SDS011;3767;42.688;23.360;2022-09-09T05:53:40;11.77;;;9.07;;
7450;SDS011;3767;42.688;23.360;2022-09-09T05:56:08;9.02;;;8.13;;
7450;SDS011;3767;42.688;23.360;2022-09-09T05:58:37;10.68;;;8.48;;
7450;SDS011;3767;42.688;23.360;2022-09-09T06:01:04;8.05;;;7.25;;
7450;SDS011;3767;42.688;23.360;2022-09-09T06:03:32;7.43;;;6.82;;
7450;SDS011;3767;42.688;23.360;2022-09-09T06:05:58;10.65;;;6.97;;
7450;SDS011;3767;42.688;23.360;2022-09-09T06:08:25;8.52;;;7.68;;
7450;SDS011;3767;42.688;23.360;2022-09-09T06:10:51;10.95;;;7.72;;
7450;SDS011;3767;42.688;23.360;2022-09-09T06:13:18;10.93;;;8.00;;
7450;SDS011;3767;42.688;23.360;2022-09-09T06:15:50;9.70;;;7.75;;
7450;SDS011;3767;42.688;23.360;2022-09-09T06:18:17;8.20;;;7.40;;
7450;SDS011;3767;42.688;23.360;2022-09-09T06:20:52;7.35;;;6.65;;
7450;SDS011;3767;42.688;23.360;2022-09-09T06:23:19;8.60;;;7.10;;
7450;SDS011;3767;42.688;23.360;2022-09-09T06:25:46;7.63;;;6.72;;
7450;SDS011;3767;42.688;23.360;2022-09-09T06:28:12;7.25;;;6.63;;
7450;SDS011;3767;42.688;23.360;2022-09-09T06:30:38;6.72;;;6.13;;
7450;SDS011;3767;42.688;23.360;2022-09-09T06:33:07;8.43;;;6.38;;
7450;SDS011;3767;42.688;23.360;2022-09-09T06:35:34;7.15;;;5.82;;
7450;SDS011;3767;42.688;23.360;2022-09-09T06:38:01;6.07;;;5.57;;
7450;SDS011;3767;42.688;23.360;2022-09-09T06:40:28;5.97;;;5.57;;
7450;SDS011;3767;42.688;23.360;2022-09-09T06:42:58;7.13;;;5.90;;
7450;SDS011;3767;42.688;23.360;2022-09-09T06:45:25;5.72;;;5.35;;
7450;SDS011;3767;42.688;23.360;2022-09-09T06:47:54;8.23;;;5.78;;
7450;SDS011;3767;42.688;23.360;2022-09-09T06:50:22;6.45;;;5.93;;
7450;SDS011;3767;42.688;23.360;2022-09-09T06:52:48;8.15;;;5.65;;
7450;SDS011;3767;42.688;23.360;2022-09-09T06:55:15;6.65;;;5.60;;
7450;SDS011;3767;42.688;23.360;2022-09-09T06:57:43;8.30;;;5.30;;
7450;SDS011;3767;42.688;23.360;2022-09-09T07:05:56;5.68;;;5.28;;
7450;SDS011;3767;42.688;23.360;2022-09-09T07:08:23;6.50;;;5.60;;
7450;SDS011;3767;42.688;23.360;2022-09-09T07:10:50;8.23;;;5.70;;
7450;SDS011;3767;42.688;23.360;2022-09-09T07:13:19;6.60;;;5.97;;
7450;SDS011;3767;42.688;23.360;2022-09-09T07:15:46;6.03;;;5.47;;
7450;SDS011;3767;42.688;23.360;2022-09-09T07:18:12;5.82;;;5.30;;
7450;SDS011;3767;42.688;23.360;2022-09-09T07:20:39;8.25;;;5.85;;
7450;SDS011;3767;42.688;23.360;2022-09-09T07:23:07;11.02;;;6.00;;
7450;SDS011;3767;42.688;23.360;2022-09-09T07:25:33;6.40;;;5.55;;
7450;SDS011;3767;42.688;23.360;2022-09-09T07:28:00;11.45;;;6.20;;
7450;SDS011;3767;42.688;23.360;2022-09-09T07:30:26;6.65;;;6.13;;
7450;SDS011;3767;42.688;23.360;2022-09-09T07:32:53;10.35;;;6.22;;
7450;SDS011;3767;42.688;23.360;2022-09-09T07:35:22;12.25;;;7.18;;
7450;SDS011;3767;42.688;23.360;2022-09-09T07:37:48;6.65;;;6.00;;
7450;SDS011;3767;42.688;23.360;2022-09-09T07:40:16;12.25;;;6.47;;
7450;SDS011;3767;42.688;23.360;2022-09-09T07:42:42;6.65;;;5.93;;
7450;SDS011;3767;42.688;23.360;2022-09-09T07:45:09;8.15;;;6.10;;
7450;SDS011;3767;42.688;23.360;2022-09-09T07:47:35;9.05;;;6.28;;
7450;SDS011;3767;42.688;23.360;2022-09-09T07:50:02;7.32;;;6.72;;
7450;SDS011;3767;42.688;23.360;2022-09-09T07:52:28;7.97;;;6.50;;
7450;SDS011;3767;42.688;23.360;2022-09-09T07:54:55;9.77;;;6.18;;
7450;SDS011;3767;42.688;23.360;2022-09-09T07:57:23;9.88;;;6.57;;
7450;SDS011;3767;42.688;23.360;2022-09-09T07:59:50;6.70;;;6.15;;
7450;SDS011;3767;42.688;23.360;2022-09-09T08:02:17;9.10;;;6.10;;
7450;SDS011;3767;42.688;23.360;2022-09-09T08:04:43;6.88;;;6.15;;
7450;SDS011;3767;42.688;23.360;2022-09-09T08:07:10;6.43;;;5.82;;
7450;SDS011;3767;42.688;23.360;2022-09-09T08:09:36;8.27;;;6.30;;
7450;SDS011;3767;42.688;23.360;2022-09-09T08:12:03;7.70;;;6.68;;
7450;SDS011;3767;42.688;23.360;2022-09-09T08:14:33;12.20;;;6.57;;
7450;SDS011;3767;42.688;23.360;2022-09-09T08:16:59;8.35;;;6.00;;
7450;SDS011;3767;42.688;23.360;2022-09-09T08:19:26;7.10;;;6.30;;
7450;SDS011;3767;42.688;23.360;2022-09-09T08:21:54;10.70;;;6.90;;
7450;SDS011;3767;42.688;23.360;2022-09-09T08:24:20;10.35;;;6.38;;
7450;SDS011;3767;42.688;23.360;2022-09-09T08:26:48;9.60;;;6.97;;
7450;SDS011;3767;42.688;23.360;2022-09-09T08:29:15;10.32;;;6.60;;
7450;SDS011;3767;42.688;23.360;2022-09-09T08:31:44;7.60;;;6.90;;
7450;SDS011;3767;42.688;23.360;2022-09-09T08:34:11;10.52;;;6.25;;
7450;SDS011;3767;42.688;23.360;2022-09-09T08:36:38;100.13;;;11.70;;
7450;SDS011;3767;42.688;23.360;2022-09-09T08:39:05;46.67;;;8.75;;
7450;SDS011;3767;42.688;23.360;2022-09-09T08:41:42;8.55;;;6.90;;
7450;SDS011;3767;42.688;23.360;2022-09-09T08:44:14;11.10;;;7.13;;
7450;SDS011;3767;42.688;23.360;2022-09-09T08:46:46;7.28;;;6.63;;
7450;SDS011;3767;42.688;23.360;2022-09-09T08:49:19;13.82;;;7.57;;
7450;SDS011;3767;42.688;23.360;2022-09-09T08:51:49;10.30;;;7.18;;
7450;SDS011;3767;42.688;23.360;2022-09-09T08:54:16;12.80;;;7.18;;
7450;SDS011;3767;42.688;23.360;2022-09-09T08:56:43;9.10;;;7.32;;
7450;SDS011;3767;42.688;23.360;2022-09-09T08:59:11;8.35;;;7.57;;
7450;SDS011;3767;42.688;23.360;2022-09-09T09:01:44;9.30;;;7.57;;
7450;SDS011;3767;42.688;23.360;2022-09-09T09:04:21;7.35;;;6.82;;
7450;SDS011;3767;42.688;23.360;2022-09-09T09:06:54;7.38;;;6.68;;
7450;SDS011;3767;42.688;23.360;2022-09-09T09:09:23;12.27;;;7.30;;
7450;SDS011;3767;42.688;23.360;2022-09-09T09:11:54;8.80;;;7.05;;
7450;SDS011;3767;42.688;23.360;2022-09-09T09:14:21;18.60;;;8.07;;
7450;SDS011;3767;42.688;23.360;2022-09-09T09:16:49;8.52;;;7.00;;
7450;SDS011;3767;42.688;23.360;2022-09-09T09:19:17;8.13;;;7.07;;
7450;SDS011;3767;42.688;23.360;2022-09-09T09:21:47;8.63;;;6.97;;
7450;SDS011;3767;42.688;23.360;2022-09-09T09:24:16;7.80;;;7.18;;
7450;SDS011;3767;42.688;23.360;2022-09-09T09:26:44;8.00;;;6.80;;
7450;SDS011;3767;42.688;23.360;2022-09-09T09:29:11;8.25;;;6.90;;
7450;SDS011;3767;42.688;23.360;2022-09-09T09:31:38;8.40;;;7.10;;
7450;SDS011;3767;42.688;23.360;2022-09-09T09:34:05;9.93;;;7.13;;
7450;SDS011;3767;42.688;23.360;2022-09-09T09:36:38;9.68;;;7.20;;
7450;SDS011;3767;42.688;23.360;2022-09-09T09:39:07;6.85;;;6.25;;
7450;SDS011;3767;42.688;23.360;2022-09-09T09:41:36;9.23;;;7.00;;
7450;SDS011;3767;42.688;23.360;2022-09-09T09:44:03;7.72;;;6.60;;
7450;SDS011;3767;42.688;23.360;2022-09-09T09:46:31;7.57;;;6.88;;
7450;SDS011;3767;42.688;23.360;2022-09-09T09:48:59;8.85;;;6.88;;
7450;SDS011;3767;42.688;23.360;2022-09-09T09:51:25;12.38;;;6.97;;
7450;SDS011;3767;42.688;23.360;2022-09-09T09:53:53;8.05;;;6.85;;
7450;SDS011;3767;42.688;23.360;2022-09-09T09:56:27;8.00;;;6.68;;
7450;SDS011;3767;42.688;23.360;2022-09-09T09:58:54;11.95;;;6.70;;
7450;SDS011;3767;42.688;23.360;2022-09-09T10:01:22;7.43;;;6.93;;
7450;SDS011;3767;42.688;23.360;2022-09-09T10:03:50;7.55;;;6.75;;
7450;SDS011;3767;42.688;23.360;2022-09-09T10:06:17;7.45;;;6.80;;
7450;SDS011;3767;42.688;23.360;2022-09-09T10:08:44;10.77;;;7.07;;
7450;SDS011;3767;42.688;23.360;2022-09-09T10:11:28;14.77;;;7.28;;
7450;SDS011;3767;42.688;23.360;2022-09-09T10:13:59;8.25;;;6.82;;
7450;SDS011;3767;42.688;23.360;2022-09-09T10:16:35;7.50;;;6.65;;
7450;SDS011;3767;42.688;23.360;2022-09-09T10:19:05;9.05;;;7.10;;
7450;SDS011;3767;42.688;23.360;2022-09-09T10:21:47;7.65;;;6.85;;
7450;SDS011;3767;42.688;23.360;2022-09-09T10:24:23;9.00;;;7.45;;
7450;SDS011;3767;42.688;23.360;2022-09-09T10:26:55;8.77;;;7.95;;
7450;SDS011;3767;42.688;23.360;2022-09-09T10:29:34;16.95;;;7.93;;
7450;SDS011;3767;42.688;23.360;2022-09-09T10:32:06;13.48;;;7.30;;
7450;SDS011;3767;42.688;23.360;2022-09-09T10:34:42;9.25;;;7.20;;
7450;SDS011;3767;42.688;23.360;2022-09-09T10:37:14;9.38;;;7.85;;
7450;SDS011;3767;42.688;23.360;2022-09-09T10:39:44;11.15;;;8.10;;
7450;SDS011;3767;42.688;23.360;2022-09-09T10:42:12;13.30;;;7.55;;
7450;SDS011;3767;42.688;23.360;2022-09-09T10:44:52;8.10;;;7.30;;
7450;SDS011;3767;42.688;23.360;2022-09-09T10:47:29;10.23;;;9.10;;
7450;SDS011;3767;42.688;23.360;2022-09-09T10:50:07;10.80;;;9.70;;
7450;SDS011;3767;42.688;23.360;2022-09-09T10:52:37;10.43;;;9.32;;
7450;SDS011;3767;42.688;23.360;2022-09-09T10:55:07;10.57;;;8.52;;
7450;SDS011;3767;42.688;23.360;2022-09-09T10:57:38;9.73;;;8.73;;
7450;SDS011;3767;42.688;23.360;2022-09-09T11:00:05;11.35;;;9.43;;
7450;SDS011;3767;42.688;23.360;2022-09-09T11:02:34;14.60;;;10.05;;
7450;SDS011;3767;42.688;23.360;2022-09-09T11:05:02;10.80;;;9.55;;
7450;SDS011;3767;42.688;23.360;2022-09-09T11:07:32;15.75;;;9.27;;
7450;SDS011;3767;42.688;23.360;2022-09-09T11:10:01;14.07;;;9.63;;
7450;SDS011;3767;42.688;23.360;2022-09-09T11:12:28;11.25;;;8.95;;
7450;SDS011;3767;42.688;23.360;2022-09-09T11:14:59;12.50;;;9.07;;
7450;SDS011;3767;42.688;23.360;2022-09-09T11:17:30;16.75;;;9.40;;
7450;SDS011;3767;42.688;23.360;2022-09-09T11:20:00;10.93;;;8.95;;
7450;SDS011;3767;42.688;23.360;2022-09-09T11:22:29;10.45;;;9.35;;
7450;SDS011;3767;42.688;23.360;2022-09-09T11:24:58;12.75;;;9.50;;
7450;SDS011;3767;42.688;23.360;2022-09-09T11:27:27;10.52;;;8.65;;
7450;SDS011;3767;42.688;23.360;2022-09-09T11:30:11;15.02;;;9.68;;
7450;SDS011;3767;42.688;23.360;2022-09-09T11:32:47;12.23;;;9.32;;
7450;SDS011;3767;42.688;23.360;2022-09-09T11:35:21;18.08;;;9.65;;
7450;SDS011;3767;42.688;23.360;2022-09-09T11:37:56;11.18;;;9.80;;
7450;SDS011;3767;42.688;23.360;2022-09-09T11:40:28;15.82;;;9.43;;
7450;SDS011;3767;42.688;23.360;2022-09-09T11:43:03;37.55;;;11.57;;
7450;SDS011;3767;42.688;23.360;2022-09-09T11:45:32;20.60;;;10.63;;
7450;SDS011;3767;42.688;23.360;2022-09-09T11:48:00;13.02;;;9.55;;
7450;SDS011;3767;42.688;23.360;2022-09-09T11:50:29;14.98;;;8.93;;
7450;SDS011;3767;42.688;23.360;2022-09-09T11:58:43;14.05;;;9.52;;
7450;SDS011;3767;42.688;23.360;2022-09-09T12:01:26;10.13;;;8.90;;
7450;SDS011;3767;42.688;23.360;2022-09-09T12:03:55;20.08;;;10.32;;
7450;SDS011;3767;42.688;23.360;2022-09-09T12:06:28;19.40;;;9.95;;
7450;SDS011;3767;42.688;23.360;2022-09-09T12:08:56;12.05;;;9.27;;
7450;SDS011;3767;42.688;23.360;2022-09-09T12:11:25;13.93;;;9.55;;
7450;SDS011;3767;42.688;23.360;2022-09-09T12:13:53;16.98;;;9.32;;
7450;SDS011;3767;42.688;23.360;2022-09-09T12:16:28;13.32;;;9.40;;
7450;SDS011;3767;42.688;23.360;2022-09-09T12:19:03;16.63;;;9.90;;
7450;SDS011;3767;42.688;23.360;2022-09-09T12:21:32;15.00;;;9.55;;
7450;SDS011;3767;42.688;23.360;2022-09-09T12:24:02;14.20;;;10.32;;
7450;SDS011;3767;42.688;23.360;2022-09-09T12:26:31;19.20;;;9.73;;
7450;SDS011;3767;42.688;23.360;2022-09-09T12:29:01;22.73;;;9.82;;
7450;SDS011;3767;42.688;23.360;2022-09-09T12:31:33;13.50;;;9.35;;
7450;SDS011;3767;42.688;23.360;2022-09-09T12:34:09;16.25;;;9.18;;
7450;SDS011;3767;42.688;23.360;2022-09-09T12:36:36;17.08;;;9.30;;
7450;SDS011;3767;42.688;23.360;2022-09-09T12:39:09;15.75;;;9.30;;
7450;SDS011;3767;42.688;23.360;2022-09-09T12:41:36;12.27;;;8.98;;
7450;SDS011;3767;42.688;23.360;2022-09-09T12:44:03;14.10;;;9.80;;
7450;SDS011;3767;42.688;23.360;2022-09-09T12:46:33;19.63;;;10.43;;
7450;SDS011;3767;42.688;23.360;2022-09-09T12:49:02;18.95;;;10.57;;
7450;SDS011;3767;42.688;23.360;2022-09-09T12:51:30;15.05;;;10.13;;
7450;SDS011;3767;42.688;23.360;2022-09-09T12:53:57;14.73;;;9.93;;
7450;SDS011;3767;42.688;23.360;2022-09-09T12:56:24;17.08;;;9.80;;
7450;SDS011;3767;42.688;23.360;2022-09-09T12:58:53;18.67;;;9.82;;
7450;SDS011;3767;42.688;23.360;2022-09-09T13:01:22;10.43;;;9.18;;
7450;SDS011;3767;42.688;23.360;2022-09-09T13:03:50;19.40;;;9.65;;
7450;SDS011;3767;42.688;23.360;2022-09-09T13:06:19;11.73;;;8.63;;
7450;SDS011;3767;42.688;23.360;2022-09-09T13:08:48;12.73;;;9.25;;
7450;SDS011;3767;42.688;23.360;2022-09-09T13:11:15;10.70;;;9.60;;
7450;SDS011;3767;42.688;23.360;2022-09-09T13:13:43;18.02;;;9.68;;
7450;SDS011;3767;42.688;23.360;2022-09-09T13:16:18;16.33;;;9.52;;
7450;SDS011;3767;42.688;23.360;2022-09-09T13:18:45;19.13;;;9.52;;
7450;SDS011;3767;42.688;23.360;2022-09-09T13:21:14;15.43;;;9.65;;
7450;SDS011;3767;42.688;23.360;2022-09-09T13:23:40;13.35;;;9.80;;
7450;SDS011;3767;42.688;23.360;2022-09-09T13:26:19;12.77;;;9.52;;
7450;SDS011;3767;42.688;23.360;2022-09-09T13:28:47;11.80;;;9.32;;
7450;SDS011;3767;42.688;23.360;2022-09-09T13:31:20;10.40;;;8.82;;
7450;SDS011;3767;42.688;23.360;2022-09-09T13:33:47;13.90;;;9.18;;
7450;SDS011;3767;42.688;23.360;2022-09-09T13:36:15;16.63;;;9.65;;
7450;SDS011;3767;42.688;23.360;2022-09-09T13:38:52;15.00;;;10.27;;
7450;SDS011;3767;42.688;23.360;2022-09-09T13:41:19;10.57;;;9.48;;
7450;SDS011;3767;42.688;23.360;2022-09-09T13:43:46;10.18;;;9.05;;
7450;SDS011;3767;42.688;23.360;2022-09-09T13:46:24;12.93;;;9.43;;
7450;SDS011;3767;42.688;23.360;2022-09-09T13:48:54;16.70;;;10.02;;
7450;SDS011;3767;42.688;23.360;2022-09-09T13:51:28;14.77;;;9.32;;
7450;SDS011;3767;42.688;23.360;2022-09-09T13:53:55;10.70;;;9.82;;
7450;SDS011;3767;42.688;23.360;2022-09-09T13:56:22;13.43;;;10.57;;
7450;SDS011;3767;42.688;23.360;2022-09-09T13:58:49;11.23;;;9.80;;
7450;SDS011;3767;42.688;23.360;2022-09-09T14:01:15;11.77;;;9.90;;
7450;SDS011;3767;42.688;23.360;2022-09-09T14:03:42;11.60;;;10.00;;
7450;SDS011;3767;42.688;23.360;2022-09-09T14:06:08;21.75;;;10.30;;
7450;SDS011;3767;42.688;23.360;2022-09-09T14:08:37;11.82;;;9.80;;
7450;SDS011;3767;42.688;23.360;2022-09-09T14:11:03;12.13;;;9.25;;
7450;SDS011;3767;42.688;23.360;2022-09-09T14:13:30;14.32;;;9.68;;
7450;SDS011;3767;42.688;23.360;2022-09-09T14:15:56;11.85;;;9.10;;
7450;SDS011;3767;42.688;23.360;2022-09-09T14:18:23;13.57;;;9.07;;
7450;SDS011;3767;42.688;23.360;2022-09-09T14:20:50;16.15;;;8.63;;
7450;SDS011;3767;42.688;23.360;2022-09-09T14:23:16;11.77;;;8.80;;
7450;SDS011;3767;42.688;23.360;2022-09-09T14:25:45;12.05;;;9.02;;
7450;SDS011;3767;42.688;23.360;2022-09-09T14:28:12;10.25;;;8.60;;
7450;SDS011;3767;42.688;23.360;2022-09-09T14:30:39;14.75;;;7.95;;
7450;SDS011;3767;42.688;23.360;2022-09-09T14:33:06;10.55;;;8.48;;
7450;SDS011;3767;42.688;23.360;2022-09-09T14:35:33;11.07;;;8.40;;
7450;SDS011;3767;42.688;23.360;2022-09-09T14:38:00;12.65;;;9.40;;
7450;SDS011;3767;42.688;23.360;2022-09-09T14:40:27;13.73;;;8.23;;
7450;SDS011;3767;42.688;23.360;2022-09-09T14:42:55;9.45;;;8.45;;
7450;SDS011;3767;42.688;23.360;2022-09-09T14:45:22;14.85;;;8.68;;
7450;SDS011;3767;42.688;23.360;2022-09-09T14:47:50;10.45;;;8.48;;
7450;SDS011;3767;42.688;23.360;2022-09-09T14:50:16;10.90;;;8.20;;
7450;SDS011;3767;42.688;23.360;2022-09-09T14:52:43;11.57;;;8.20;;
7450;SDS011;3767;42.688;23.360;2022-09-09T14:55:09;12.48;;;7.93;;
7450;SDS011;3767;42.688;23.360;2022-09-09T14:57:36;12.15;;;8.23;;
7450;SDS011;3767;42.688;23.360;2022-09-09T15:00:06;11.02;;;8.75;;
7450;SDS011;3767;42.688;23.360;2022-09-09T15:02:32;11.90;;;8.02;;
7450;SDS011;3767;42.688;23.360;2022-09-09T15:04:59;13.40;;;8.35;;
7450;SDS011;3767;42.688;23.360;2022-09-09T15:07:26;12.05;;;8.15;;
7450;SDS011;3767;42.688;23.360;2022-09-09T15:09:53;11.80;;;8.43;;
7450;SDS011;3767;42.688;23.360;2022-09-09T15:12:20;9.38;;;8.30;;
7450;SDS011;3767;42.688;23.360;2022-09-09T15:14:47;8.85;;;8.00;;